createdAt,value
2023-04-03T00:00:18.342Z,102294.81
2023-04-03T00:02:45.042Z,102296.47
2023-04-03T00:05:11.618Z,102301.72
2023-04-03T00:07:38.234Z,102298.97
2023-04-03T00:10:05.496Z,102305.31
2023-04-03T00:12:32.132Z,102306.16
2023-04-03T00:14:58.529Z,102304.19
2023-04-03T00:17:25.078Z,102308.09
2023-04-03T00:19:51.764Z,102310.03
2023-04-03T00:22:18.359Z,102299.25
2023-04-03T00:24:44.962Z,102304.78
2023-04-03T00:27:12.296Z,102306.44
2023-04-03T00:29:38.625Z,102303.97
2023-04-03T00:32:05.427Z,102296.47
2023-04-03T00:34:31.949Z,102305.06
2023-04-03T00:36:58.630Z,102295.09
2023-04-03T00:39:25.343Z,102301.75
2023-04-03T00:41:52.064Z,102306.78
2023-04-03T00:44:46.852Z,102304.56
2023-04-03T00:47:17.013Z,102303.72
2023-04-03T00:49:44.733Z,102299.56
2023-04-03T00:52:17.301Z,102311.50
2023-04-03T00:54:46.964Z,102313.47
2023-04-03T00:57:13.884Z,102315.13
2023-04-03T00:59:45.795Z,102311.84
2023-04-03T01:02:12.231Z,102317.66
2023-04-03T01:04:41.962Z,102309.09
2023-04-03T01:07:12.208Z,102317.69
2023-04-03T01:09:39.934Z,102315.19
2023-04-03T01:12:20.515Z,102316.88
2023-04-03T01:14:49.273Z,102318.53
2023-04-03T01:17:27.800Z,102315.78
2023-04-03T01:20:12.666Z,102318.28
2023-04-03T01:23:24.240Z,102318.03
2023-04-03T01:25:53.997Z,102327.44
2023-04-03T01:28:29.781Z,102321.63
2023-04-03T01:31:23.877Z,102323.59
2023-04-03T01:33:50.670Z,102328.03
2023-04-03T01:36:26.989Z,102323.31
2023-04-03T01:38:54.198Z,102326.38
2023-04-03T01:41:22.212Z,102322.22
2023-04-03T01:43:49.661Z,102325.28
2023-04-03T01:46:20.733Z,102323.94
2023-04-03T01:48:48.491Z,102323.06
2023-04-03T01:51:15.286Z,102334.44
2023-04-03T01:53:41.801Z,102336.38
2023-04-03T01:56:08.778Z,102334.16
2023-04-03T01:58:35.611Z,102334.44
2023-04-03T02:01:02.580Z,102335.00
2023-04-03T02:03:29.173Z,102331.69
2023-04-03T02:05:55.523Z,102337.78
2023-04-03T02:08:22.211Z,102346.66
2023-04-03T02:10:50.214Z,102338.63
2023-04-03T02:13:18.170Z,102340.00
2023-04-03T02:15:44.793Z,102336.72
2023-04-03T02:18:11.238Z,102338.38
2023-04-03T02:20:38.002Z,102334.22
2023-04-03T02:23:04.828Z,102348.06
2023-04-03T02:25:32.499Z,102345.00
2023-04-03T02:27:59.136Z,102345.28
2023-04-03T02:30:26.100Z,102348.34
2023-04-03T02:32:52.416Z,102356.06
2023-04-03T02:35:19.203Z,102355.81
2023-04-03T02:37:45.889Z,102357.19
2023-04-03T02:40:12.636Z,102361.31
2023-04-03T02:42:39.400Z,102366.31
2023-04-03T02:45:06.550Z,102361.63
2023-04-03T02:47:33.002Z,102361.06
2023-04-03T02:49:59.396Z,102367.97
2023-04-03T02:52:25.808Z,102366.31
2023-04-03T02:54:52.149Z,102365.78
2023-04-03T02:57:18.526Z,102366.03
2023-04-03T02:59:45.181Z,102369.91
2023-04-03T03:02:11.871Z,102362.97
2023-04-03T03:04:38.325Z,102364.09
2023-04-03T03:07:05.342Z,102368.78
2023-04-03T03:09:31.948Z,102367.97
2023-04-03T03:11:58.262Z,102361.59
2023-04-03T03:14:24.787Z,102364.66
2023-04-03T03:16:51.205Z,102355.25
2023-04-03T03:19:17.557Z,102367.41
2023-04-03T03:21:43.891Z,102366.59
2023-04-03T03:24:10.368Z,102364.91
2023-04-03T03:26:36.828Z,102365.19
2023-04-03T03:29:03.354Z,102362.72
2023-04-03T03:31:30.003Z,102374.03
2023-04-03T03:33:56.417Z,102367.94
2023-04-03T03:36:23.330Z,102363.53
2023-04-03T03:38:49.938Z,102377.06
2023-04-03T03:41:16.665Z,102371.00
2023-04-03T03:43:43.020Z,102377.88
2023-04-03T03:46:09.354Z,102374.00
2023-04-03T03:48:36.188Z,102371.81
2023-04-03T03:51:02.509Z,102371.50
2023-04-03T03:53:28.850Z,102374.56
2023-04-03T03:55:55.447Z,102378.13
2023-04-03T03:58:21.796Z,102367.88
2023-04-03T04:00:48.358Z,102370.06
2023-04-03T04:03:15.049Z,102386.09
2023-04-03T04:05:41.441Z,102385.50
2023-04-03T04:08:07.861Z,102381.38
2023-04-03T04:10:35.210Z,102386.31
2023-04-03T04:13:01.623Z,102389.94
2023-04-03T04:15:28.089Z,102395.47
2023-04-03T04:17:54.634Z,102387.44
2023-04-03T04:20:21.639Z,102385.78
2023-04-03T04:22:48.195Z,102386.88
2023-04-03T04:25:14.817Z,102389.34
2023-04-03T04:27:41.609Z,102389.88
2023-04-03T04:30:08.728Z,102394.03
2023-04-03T04:32:35.504Z,102394.31
2023-04-03T04:35:02.277Z,102394.00
2023-04-03T04:37:28.870Z,102389.84
2023-04-03T04:39:55.578Z,102393.69
2023-04-03T04:42:22.240Z,102397.84
2023-04-03T04:44:48.864Z,102397.28
2023-04-03T04:47:15.554Z,102403.91
2023-04-03T04:49:42.189Z,102411.06
2023-04-03T04:52:08.624Z,102413.28
2023-04-03T04:54:35.290Z,102414.63
2023-04-03T04:57:01.637Z,102409.66
2023-04-03T04:59:28.098Z,102410.72
2023-04-03T05:01:54.688Z,102420.94
2023-04-03T05:04:21.430Z,102420.41
2023-04-03T05:06:47.894Z,102421.50
2023-04-03T05:09:14.488Z,102428.09
2023-04-03T05:11:41.191Z,102423.13
2023-04-03T05:14:07.662Z,102430.28
2023-04-03T05:16:34.421Z,102435.22
2023-04-03T05:19:00.999Z,102434.66
2023-04-03T05:21:28.865Z,102437.94
2023-04-03T05:23:55.193Z,102436.00
2023-04-03T05:26:22.023Z,102441.81
2023-04-03T05:28:48.622Z,102450.63
2023-04-03T05:31:15.847Z,102439.84
2023-04-03T05:33:42.187Z,102438.19
2023-04-03T05:36:09.013Z,102450.56
2023-04-03T05:38:35.878Z,102454.19
2023-04-03T05:41:02.625Z,102455.25
2023-04-03T05:43:28.991Z,102462.72
2023-04-03T05:45:55.431Z,102465.75
2023-04-03T05:48:22.050Z,102463.81
2023-04-03T05:50:48.689Z,102474.03
2023-04-03T05:53:29.133Z,102471.78
2023-04-03T05:55:55.606Z,102478.72
2023-04-03T05:58:21.996Z,102482.31
2023-04-03T06:00:48.518Z,102481.19
2023-04-03T06:03:15.091Z,102487.00
2023-04-03T06:05:42.552Z,102491.97
2023-04-03T06:08:10.213Z,102493.66
2023-04-03T06:10:37.538Z,102489.53
2023-04-03T06:13:03.935Z,102497.28
2023-04-03T06:15:30.931Z,102494.84
2023-04-03T06:17:58.047Z,102499.81
2023-04-03T06:20:24.715Z,102498.19
2023-04-03T06:22:52.053Z,102504.84
2023-04-03T06:25:19.940Z,102496.88
2023-04-03T06:27:46.397Z,102499.91
2023-04-03T06:30:13.292Z,102504.63
2023-04-03T06:32:39.766Z,102504.13
2023-04-03T06:35:07.307Z,102501.91
2023-04-03T06:37:33.800Z,102502.22
2023-04-03T06:40:01.451Z,102503.88
2023-04-03T06:42:27.885Z,102498.09
2023-04-03T06:44:54.238Z,102510.28
2023-04-03T06:47:20.915Z,102506.44
2023-04-03T06:49:47.864Z,102513.31
2023-04-03T06:52:14.397Z,102513.63
2023-04-03T06:54:41.476Z,102517.81
2023-04-03T06:57:08.568Z,102510.06
2023-04-03T06:59:36.109Z,102515.91
2023-04-03T07:02:02.555Z,102516.47
2023-04-03T07:04:29.059Z,102519.81
2023-04-03T07:06:55.818Z,102520.91
2023-04-03T07:09:22.743Z,102526.19
2023-04-03T07:11:49.146Z,102527.56
2023-04-03T07:14:15.513Z,102532.84
2023-04-03T07:16:42.911Z,102541.41
2023-04-03T07:19:09.985Z,102541.19
2023-04-03T07:21:36.678Z,102546.16
2023-04-03T07:24:03.648Z,102543.69
2023-04-03T07:26:30.221Z,102546.19
2023-04-03T07:28:56.516Z,102545.38
2023-04-03T07:31:22.834Z,102552.03
2023-04-03T07:33:49.261Z,102558.69
2023-04-03T07:36:18.578Z,102557.91
2023-04-03T07:38:45.007Z,102551.56
2023-04-03T07:41:16.291Z,102566.78
2023-04-03T07:43:43.254Z,102556.03
2023-04-03T07:46:10.235Z,102553.88
2023-04-03T07:48:36.972Z,102553.31
2023-04-03T07:51:05.111Z,102552.25
2023-04-03T07:53:31.960Z,102559.75
2023-04-03T07:55:59.828Z,102557.53
2023-04-03T07:58:26.826Z,102563.09
2023-04-03T08:00:53.802Z,102569.22
2023-04-03T08:03:20.437Z,102572.25
2023-04-03T08:05:48.852Z,102571.69
2023-04-03T08:08:20.885Z,102573.09
2023-04-03T08:10:54.867Z,102578.66
2023-04-03T08:13:22.372Z,102568.38
2023-04-03T08:15:49.152Z,102567.84
2023-04-03T08:18:17.259Z,102566.72
2023-04-03T08:20:44.127Z,102581.09
2023-04-03T08:23:11.313Z,102570.88
2023-04-03T08:25:42.447Z,102577.78
2023-04-03T08:28:09.622Z,102563.38
2023-04-03T08:30:37.215Z,102568.63
2023-04-03T08:33:04.713Z,102566.13
2023-04-03T08:35:32.694Z,102562.81
2023-04-03T08:37:59.359Z,102555.59
2023-04-03T08:40:25.977Z,102560.31
2023-04-03T08:43:05.379Z,102559.47
2023-04-03T08:45:51.819Z,102568.59
2023-04-03T08:48:23.951Z,102572.75
2023-04-03T08:50:54.621Z,102564.41
2023-04-03T08:53:29.574Z,102560.78
2023-04-03T08:55:56.861Z,102571.56
2023-04-03T08:58:27.085Z,102567.13
2023-04-03T09:01:06.017Z,102571.56
2023-04-03T09:03:36.320Z,102555.75
2023-04-03T09:06:21.418Z,102559.91
2023-04-03T09:09:14.987Z,102570.72
2023-04-03T09:11:56.561Z,102566.84
2023-04-03T09:14:58.322Z,102570.44
2023-04-03T09:17:46.206Z,102566.25
2023-04-03T09:20:28.924Z,102576.22
2023-04-03T09:22:55.595Z,102583.72
2023-04-03T09:25:33.835Z,102560.97
2023-04-03T09:28:02.515Z,102574.00
2023-04-03T09:30:29.784Z,102575.34
2023-04-03T09:32:58.257Z,102587.84
2023-04-03T09:35:36.294Z,102564.78
2023-04-03T09:38:11.139Z,102573.06
2023-04-03T09:40:42.091Z,102575.81
2023-04-03T09:43:32.328Z,102565.22
2023-04-03T09:46:20.910Z,102556.59
2023-04-03T09:49:05.114Z,102572.66
2023-04-03T09:51:34.296Z,102564.00
2023-04-03T09:54:01.019Z,102556.16
2023-04-03T09:56:31.600Z,102560.03
2023-04-03T09:59:03.252Z,102558.88
2023-04-03T10:01:31.365Z,102555.78
2023-04-03T10:04:06.722Z,102542.16
2023-04-03T10:06:41.478Z,102545.09
2023-04-03T10:09:21.774Z,102548.13
2023-04-03T10:12:08.239Z,102548.13
2023-04-03T10:14:39.765Z,102541.13
2023-04-03T10:17:21.559Z,102546.06
2023-04-03T10:19:58.422Z,102530.19
2023-04-03T10:22:43.520Z,102532.38
2023-04-03T10:25:27.890Z,102516.47
2023-04-03T10:27:57.253Z,102533.94
2023-04-03T10:30:33.672Z,102524.47
2023-04-03T10:33:18.212Z,102524.69
2023-04-03T10:36:12.564Z,102527.44
2023-04-03T10:38:59.301Z,102532.66
2023-04-03T10:41:51.470Z,102532.00
2023-04-03T10:44:37.663Z,102517.75
2023-04-03T10:47:25.684Z,102519.06
2023-04-03T10:50:02.647Z,102528.69
2023-04-03T10:52:41.560Z,102527.47
2023-04-03T10:55:13.966Z,102522.16
2023-04-03T10:57:41.850Z,102518.47
2023-04-03T11:00:20.751Z,102503.16
2023-04-03T11:02:53.833Z,102522.00
2023-04-03T11:05:37.717Z,102535.41
2023-04-03T11:08:14.651Z,102527.00
2023-04-03T11:10:49.166Z,102511.19
2023-04-03T11:13:21.096Z,102512.59
2023-04-03T11:15:47.619Z,102517.66
2023-04-03T11:18:23.212Z,102504.31
2023-04-03T11:20:59.866Z,102502.16
2023-04-03T11:23:30.377Z,102499.59
2023-04-03T11:26:14.223Z,102499.31
2023-04-03T11:28:40.818Z,102489.75
2023-04-03T11:31:27.231Z,102494.94
2023-04-03T11:34:02.376Z,102503.00
2023-04-03T11:36:39.460Z,102481.56
2023-04-03T11:39:20.240Z,102485.75
2023-04-03T11:41:48.281Z,102480.75
2023-04-03T11:44:38.624Z,102481.84
2023-04-03T11:47:13.241Z,102479.06
2023-04-03T11:50:00.098Z,102481.25
2023-04-03T11:52:44.759Z,102465.38
2023-04-03T11:55:23.260Z,102461.19
2023-04-03T11:57:58.771Z,102461.19
2023-04-03T12:00:50.868Z,102458.66
2023-04-03T12:03:32.738Z,102461.19
2023-04-03T12:06:05.122Z,102461.38
2023-04-03T12:08:49.695Z,102456.13
2023-04-03T12:11:39.145Z,102451.09
2023-04-03T12:14:06.224Z,102446.28
2023-04-03T12:16:38.535Z,102447.91
2023-04-03T12:22:08.504Z,102446.72
2023-04-03T12:24:40.181Z,102437.75
2023-04-03T12:27:23.288Z,102448.06
2023-04-03T12:29:57.876Z,102441.28
2023-04-03T12:32:43.030Z,102438.72
2023-04-03T12:35:20.064Z,102436.72
2023-04-03T12:38:19.603Z,102428.56
2023-04-03T12:40:58.292Z,102404.75
2023-04-03T12:43:49.892Z,102408.25
2023-04-03T12:46:19.987Z,102411.81
2023-04-03T12:48:48.139Z,102425.94
2023-04-03T12:51:29.368Z,102419.84
2023-04-03T12:54:03.176Z,102415.94
2023-04-03T12:56:33.409Z,102409.22
2023-04-03T12:59:23.658Z,102400.66
2023-04-03T13:02:13.463Z,102400.66
2023-04-03T13:04:40.260Z,102406.75
2023-04-03T13:07:07.871Z,102395.59
2023-04-03T13:09:34.611Z,102397.25
2023-04-03T13:12:14.060Z,102394.78
2023-04-03T13:14:42.094Z,102391.56
2023-04-03T13:17:17.942Z,102411.91
2023-04-03T13:19:46.882Z,102398.50
2023-04-03T13:22:44.554Z,102404.38
2023-04-03T13:25:17.121Z,102395.94
2023-04-03T13:27:45.122Z,102392.03
2023-04-03T13:30:30.330Z,102383.13
2023-04-03T13:33:00.853Z,102383.34
2023-04-03T13:35:40.269Z,102394.81
2023-04-03T13:38:25.659Z,102397.28
2023-04-03T13:40:55.787Z,102391.19
2023-04-03T13:43:28.359Z,102388.41
2023-04-03T13:46:07.241Z,102382.28
2023-04-03T13:48:42.953Z,102378.69
2023-04-03T13:51:12.593Z,102383.13
2023-04-03T13:53:52.401Z,102373.94
2023-04-03T13:56:32.174Z,102385.63
2023-04-03T13:59:18.656Z,102361.38
2023-04-03T14:01:53.535Z,102360.44
2023-04-03T14:04:30.484Z,102360.44
2023-04-03T14:06:57.969Z,102366.41
2023-04-03T14:09:27.263Z,102351.34
2023-04-03T14:12:06.031Z,102345.75
2023-04-03T14:14:35.680Z,102354.34
2023-04-03T14:17:24.819Z,102352.09
2023-04-03T14:19:53.625Z,102345.03
2023-04-03T14:22:24.309Z,102348.97
2023-04-03T14:24:52.745Z,102345.88
2023-04-03T14:27:37.769Z,102341.44
2023-04-03T14:30:05.636Z,102354.22
2023-04-03T14:32:32.444Z,102341.94
2023-04-03T14:34:59.634Z,102342.56
2023-04-03T14:37:30.011Z,102322.84
2023-04-03T14:39:59.044Z,102333.50
2023-04-03T14:42:32.193Z,102324.28
2023-04-03T14:45:00.814Z,102324.81
2023-04-03T14:47:31.668Z,102325.03
2023-04-03T14:50:02.084Z,102328.00
2023-04-03T14:52:32.304Z,102332.97
2023-04-03T14:54:59.039Z,102322.63
2023-04-03T14:57:27.744Z,102328.22
2023-04-03T14:59:54.182Z,102322.94
2023-04-03T15:02:32.843Z,102325.84
2023-04-03T15:05:01.315Z,102319.13
2023-04-03T15:07:31.174Z,102319.44
2023-04-03T15:09:57.782Z,102315.53
2023-04-03T15:12:26.185Z,102307.47
2023-04-03T15:14:59.980Z,102306.84
2023-04-03T15:17:28.418Z,102308.19
2023-04-03T15:19:54.879Z,102303.44
2023-04-03T15:22:21.322Z,102313.44
2023-04-03T15:24:47.893Z,102312.63
2023-04-03T15:27:16.434Z,102315.09
2023-04-03T15:29:43.673Z,102302.28
2023-04-03T15:32:10.733Z,102319.53
2023-04-03T15:34:38.348Z,102314.25
2023-04-03T15:37:04.902Z,102308.47
2023-04-03T15:39:31.381Z,102312.41
2023-04-03T15:42:00.789Z,102319.13
2023-04-03T15:44:27.391Z,102309.13
2023-04-03T15:46:54.073Z,102317.47
2023-04-03T15:49:22.298Z,102315.00
2023-04-03T15:51:49.007Z,102309.13
2023-04-03T15:54:16.623Z,102311.91
2023-04-03T15:56:43.853Z,102311.91
2023-04-03T15:59:11.440Z,102328.94
2023-04-03T16:01:39.865Z,102323.16
2023-04-03T16:04:09.585Z,102308.69
2023-04-03T16:06:36.602Z,102308.50
2023-04-03T16:09:04.086Z,102309.94
2023-04-03T16:11:31.647Z,102307.16
2023-04-03T16:14:09.394Z,102318.63
2023-04-03T16:16:37.646Z,102321.72
2023-04-03T16:19:05.410Z,102313.66
2023-04-03T16:21:34.110Z,102311.47
2023-04-03T16:24:02.549Z,102315.72
2023-04-03T16:26:29.272Z,102319.13
2023-04-03T16:28:55.683Z,102312.72
2023-04-03T16:31:28.036Z,102315.00
2023-04-03T16:33:55.917Z,102320.59
2023-04-03T16:36:23.379Z,102311.41
2023-04-03T16:38:49.705Z,102312.22
2023-04-03T16:41:18.120Z,102303.66
2023-04-03T16:43:45.097Z,102318.72
2023-04-03T16:46:11.530Z,102315.94
2023-04-03T16:48:38.936Z,102310.16
2023-04-03T16:51:05.473Z,102308.50
2023-04-03T16:53:32.117Z,102298.50
2023-04-03T16:55:59.517Z,102305.19
2023-04-03T16:58:27.136Z,102304.69
2023-04-03T17:00:55.030Z,102309.44
2023-04-03T17:03:22.090Z,102315.31
2023-04-03T17:05:49.037Z,102314.78
2023-04-03T17:08:19.077Z,102323.44
2023-04-03T17:10:45.444Z,102324.28
2023-04-03T17:13:11.750Z,102325.69
2023-04-03T17:15:39.795Z,102324.38
2023-04-03T17:18:08.679Z,102319.72
2023-04-03T17:20:37.210Z,102316.13
2023-04-03T17:23:03.569Z,102323.31
2023-04-03T17:25:30.370Z,102319.81
2023-04-03T17:27:56.815Z,102317.91
2023-04-03T17:30:23.669Z,102312.13
2023-04-03T17:32:50.061Z,102322.22
2023-04-03T17:35:16.819Z,102326.78
2023-04-03T17:37:43.371Z,102317.06
2023-04-03T17:40:10.314Z,102324.91
2023-04-03T17:42:36.704Z,102325.81
2023-04-03T17:45:03.489Z,102321.34
2023-04-03T17:47:30.283Z,102314.75
2023-04-03T17:49:57.024Z,102320.94
2023-04-03T17:52:25.599Z,102320.72
2023-04-03T17:54:52.115Z,102321.84
2023-04-03T17:57:18.796Z,102321.34
2023-04-03T17:59:46.453Z,102320.56
2023-04-03T18:02:12.808Z,102330.69
2023-04-03T18:04:39.214Z,102328.25
2023-04-03T18:07:09.808Z,102334.72
2023-04-03T18:09:37.862Z,102331.19
2023-04-03T18:12:07.059Z,102328.50
2023-04-03T18:14:35.365Z,102325.78
2023-04-03T18:17:01.771Z,102320.81
2023-04-03T18:19:29.928Z,102323.41
2023-04-03T18:22:00.720Z,102326.25
2023-04-03T18:24:28.188Z,102331.28
2023-04-03T18:27:00.258Z,102330.22
2023-04-03T18:29:30.750Z,102332.25
2023-04-03T18:31:58.570Z,102331.72
2023-04-03T18:34:25.138Z,102323.16
2023-04-03T18:36:52.239Z,102328.47
2023-04-03T18:39:18.997Z,102323.53
2023-04-03T18:41:46.142Z,102325.25
2023-04-03T18:44:15.774Z,102330.56
2023-04-03T18:46:42.567Z,102321.16
2023-04-03T18:49:11.038Z,102327.63
2023-04-03T18:51:39.750Z,102332.34
2023-04-03T18:54:09.501Z,102331.28
2023-04-03T18:56:37.040Z,102334.69
2023-04-03T18:59:03.530Z,102334.97
2023-04-03T19:01:31.321Z,102332.75
2023-04-03T19:03:59.198Z,102329.44
2023-04-03T19:06:26.104Z,102332.81
2023-04-03T19:08:52.585Z,102337.00
2023-04-03T19:11:19.235Z,102335.66
2023-04-03T19:14:04.553Z,102337.06
2023-04-03T19:16:34.194Z,102340.97
2023-04-03T19:19:00.738Z,102344.03
2023-04-03T19:21:27.496Z,102342.16
2023-04-03T19:23:55.253Z,102344.41
2023-04-03T19:26:23.335Z,102345.81
2023-04-03T19:28:51.364Z,102353.59
2023-04-03T19:31:20.869Z,102346.16
2023-04-03T19:33:47.880Z,102352.03
2023-04-03T19:36:15.709Z,102354.25
2023-04-03T19:38:42.804Z,102344.88
2023-04-03T19:41:13.728Z,102356.84
2023-04-03T19:43:42.114Z,102351.06
2023-04-03T19:46:09.617Z,102349.41
2023-04-03T19:48:36.597Z,102337.22
2023-04-03T19:51:04.652Z,102343.91
2023-04-03T19:53:31.591Z,102350.84
2023-04-03T19:55:58.533Z,102346.72
2023-04-03T19:58:29.706Z,102338.97
2023-04-03T20:00:59.035Z,102345.09
2023-04-03T20:03:26.443Z,102346.53
2023-04-03T20:05:54.318Z,102343.19
2023-04-03T20:08:20.920Z,102354.59
2023-04-03T20:10:49.618Z,102349.34
2023-04-03T20:13:16.292Z,102344.38
2023-04-03T20:15:46.030Z,102345.50
2023-04-03T20:18:18.928Z,102342.19
2023-04-03T20:21:00.073Z,102339.69
2023-04-03T20:23:27.437Z,102331.66
2023-04-03T20:26:06.516Z,102340.56
2023-04-03T20:28:36.338Z,102338.09
2023-04-03T20:31:03.540Z,102337.84
2023-04-03T20:33:30.061Z,102338.44
2023-04-03T20:35:57.694Z,102331.50
2023-04-03T20:38:24.176Z,102327.38
2023-04-03T20:40:50.723Z,102338.75
2023-04-03T20:43:17.205Z,102329.06
2023-04-03T20:45:44.110Z,102326.56
2023-04-03T20:48:12.885Z,102331.59
2023-04-03T20:50:39.941Z,102323.56
2023-04-03T20:53:07.996Z,102322.19
2023-04-03T20:55:34.507Z,102325.53
2023-04-03T20:58:02.002Z,102317.78
2023-04-03T21:00:32.103Z,102319.19
2023-04-03T21:03:01.654Z,102318.66
2023-04-03T21:05:30.030Z,102318.97
2023-04-03T21:08:34.918Z,102326.75
2023-04-03T21:11:38.433Z,102321.78
2023-04-03T21:14:43.220Z,102320.16
2023-04-03T21:17:09.521Z,102327.66
2023-04-03T21:19:43.135Z,102323.28
2023-04-03T21:22:09.803Z,102327.72
2023-04-03T21:24:36.828Z,102330.53
2023-04-03T21:27:04.977Z,102321.66
2023-04-03T21:29:31.631Z,102322.25
2023-04-03T21:31:59.820Z,102319.50
2023-04-03T21:34:30.432Z,102318.13
2023-04-03T21:37:08.665Z,102312.59
2023-04-03T21:39:35.414Z,102321.75
2023-04-03T21:42:01.897Z,102320.09
2023-04-03T21:44:28.822Z,102314.28
2023-04-03T21:46:59.781Z,102322.88
2023-04-03T21:49:27.025Z,102315.69
2023-04-03T21:51:54.311Z,102317.91
2023-04-03T21:54:20.975Z,102314.91
2023-04-03T21:56:52.646Z,102313.81
2023-04-03T21:59:19.195Z,102315.47
2023-04-03T22:01:45.792Z,102310.50
2023-04-03T22:04:12.840Z,102314.94
2023-04-03T22:06:39.262Z,102305.00
2023-04-03T22:09:05.843Z,102312.22
2023-04-03T22:11:35.045Z,102309.47
2023-04-03T22:14:01.926Z,102303.94
2023-04-03T22:16:28.603Z,102304.53
2023-04-03T22:18:59.229Z,102294.31
2023-04-03T22:21:25.798Z,102296.78
2023-04-03T22:23:52.550Z,102300.41
2023-04-03T22:26:18.847Z,102293.47
2023-04-03T22:28:47.121Z,102299.88
2023-04-03T22:31:14.849Z,102296.84
2023-04-03T22:33:42.480Z,102299.34
2023-04-03T22:36:10.735Z,102297.41
2023-04-03T22:38:39.313Z,102299.63
2023-04-03T22:41:07.162Z,102299.06
2023-04-03T22:43:36.142Z,102299.34
2023-04-03T22:46:04.341Z,102297.41
2023-04-03T22:48:33.753Z,102302.13
2023-04-03T22:51:01.040Z,102292.44
2023-04-03T22:53:28.310Z,102299.38
2023-04-03T22:55:59.427Z,102290.53
2023-04-03T22:58:26.682Z,102295.78
2023-04-03T23:01:08.173Z,102296.63
2023-04-03T23:03:35.868Z,102297.19
2023-04-03T23:06:03.656Z,102303.00
2023-04-03T23:08:31.319Z,102303.53
2023-04-03T23:10:58.761Z,102308.25
2023-04-03T23:13:26.616Z,102315.97
2023-04-03T23:16:01.019Z,102310.19
2023-04-03T23:18:31.447Z,102304.06
2023-04-03T23:21:04.617Z,102304.91
2023-04-03T23:23:31.875Z,102302.44
2023-04-03T23:26:00.669Z,102309.31
2023-04-03T23:28:27.926Z,102311.25
2023-04-03T23:31:06.858Z,102312.38
2023-04-03T23:33:33.557Z,102313.47
2023-04-03T23:36:05.845Z,102309.31
2023-04-03T23:38:32.252Z,102311.00
2023-04-03T23:40:58.851Z,102310.69
2023-04-03T23:43:25.397Z,102301.81
2023-04-03T23:45:51.919Z,102309.84
2023-04-03T23:48:18.421Z,102305.66
2023-04-03T23:50:44.809Z,102301.53
2023-04-03T23:53:13.557Z,102304.84
2023-04-03T23:55:40.644Z,102302.59
2023-04-03T23:58:07.528Z,102317.00
